Time;durP1;ratioP1;P1;durP2;ratioP2;P2;SDS_P1;SDS_P2;PMS_P1;PMS_P2;Temp;Humidity;BMP_temperature;BMP_pressure;BME280_temperature;BME280_humidity;BME280_pressure;Samples;Min_cycle;Max_cycle;Signal;HPM_P1;HPM_P2
2022/10/26 00:00:12;;;;;;;11.40;6.33;;;17.60;83.20;;;18.01;55.52;95411.25;5038969;28;21346;-56
2022/10/26 00:02:40;;;;;;;11.63;5.70;;;17.60;83.60;;;17.95;55.59;95401.28;5041517;28;20909;-55
2022/10/26 00:05:08;;;;;;;17.73;5.90;;;17.60;84.10;;;17.95;55.46;95415.41;5033917;28;20488;-54
2022/10/26 00:07:36;;;;;;;20.60;5.93;;;17.60;84.30;;;17.90;55.48;95415.94;5040742;28;20448;-54
2022/10/26 00:10:03;;;;;;;14.87;5.50;;;17.60;84.70;;;17.87;55.91;95416.25;5045110;28;20545;-55
2022/10/26 00:12:31;;;;;;;10.03;5.43;;;17.50;85.30;;;17.85;56.36;95407.59;5038052;28;20487;-55
2022/10/26 00:14:58;;;;;;;13.07;5.97;;;17.50;85.80;;;17.82;55.66;95418.59;5037455;28;21003;-55
2022/10/26 00:17:25;;;;;;;14.43;6.00;;;17.50;85.30;;;17.80;56.24;95417.94;5041526;28;20559;-56
2022/10/26 00:19:54;;;;;;;10.30;5.83;;;17.40;86.40;;;17.75;56.33;95417.59;5039004;28;20533;-56
2022/10/26 00:22:21;;;;;;;15.10;5.83;;;17.40;85.80;;;17.74;56.13;95421.28;5039224;28;20527;-56
2022/10/26 00:24:48;;;;;;;16.87;5.33;;;17.30;86.20;;;17.73;55.96;95425.75;5041097;28;20475;-54
2022/10/26 00:27:15;;;;;;;19.53;5.43;;;17.30;86.50;;;17.72;56.75;95417.94;5041940;28;20562;-54
2022/10/26 00:29:43;;;;;;;10.57;5.83;;;17.30;87.10;;;17.72;56.67;95428.59;5041658;28;21009;-55
2022/10/26 00:32:10;;;;;;;9.47;5.60;;;17.30;86.90;;;17.71;56.75;95424.28;5039471;28;20456;-54
2022/10/26 00:34:37;;;;;;;16.70;6.97;;;17.30;87.50;;;17.69;56.68;95423.59;5041749;28;20484;-54
2022/10/26 00:37:06;;;;;;;19.67;6.33;;;17.30;88.30;;;17.67;56.58;95426.44;5037780;28;20771;-53
2022/10/26 00:39:33;;;;;;;17.27;6.50;;;17.30;88.20;;;17.64;56.77;95425.97;5033964;28;20527;-57
2022/10/26 00:42:01;;;;;;;20.83;5.80;;;17.30;88.30;;;17.64;56.75;95418.78;5034369;28;20487;-54
2022/10/26 00:45:00;;;;;;;9.20;5.40;;;17.30;88.60;;;17.62;57.00;95427.97;5038095;28;20984;-54
2022/10/26 00:47:40;;;;;;;11.93;6.50;;;17.20;88.90;;;17.60;57.19;95424.63;5038016;28;20952;-54
2022/10/26 00:50:10;;;;;;;20.87;6.30;;;17.20;88.80;;;17.55;56.94;95412.69;5044682;28;20529;-58
2022/10/26 00:52:39;;;;;;;17.07;7.17;;;17.20;89.30;;;17.53;57.04;95413.84;5040985;28;20518;-54
2022/10/26 00:55:07;;;;;;;12.37;5.70;;;17.20;89.30;;;17.50;56.73;95409.69;5044570;28;20471;-55
2022/10/26 00:57:35;;;;;;;11.90;6.53;;;17.10;89.40;;;17.48;57.07;95411.69;5044450;28;20468;-55
2022/10/26 01:00:03;;;;;;;18.60;6.37;;;17.10;89.50;;;17.46;56.91;95408.38;5043427;28;20468;-55
2022/10/26 01:02:31;;;;;;;22.37;6.40;;;17.10;89.50;;;17.45;56.91;95406.72;5041756;28;20495;-55
2022/10/26 01:04:58;;;;;;;13.93;6.03;;;17.10;89.90;;;17.43;56.91;95405.22;5039777;28;20894;-53
2022/10/26 01:07:25;;;;;;;15.97;6.70;;;17.00;90.00;;;17.43;57.35;95406.06;5043134;28;21005;-54
2022/10/26 01:09:54;;;;;;;9.83;5.70;;;17.00;90.10;;;17.39;57.07;95412.69;5043785;28;20514;-55
2022/10/26 01:12:21;;;;;;;8.23;5.83;;;17.00;90.20;;;17.36;57.43;95405.88;5040109;28;20456;-57
2022/10/26 01:14:49;;;;;;;11.57;5.93;;;17.00;90.10;;;17.32;57.04;95401.06;5042575;28;20861;-55
2022/10/26 01:17:34;;;;;;;9.73;5.03;;;17.00;90.20;;;17.26;57.65;95399.09;5041777;28;20449;-55
2022/10/26 01:20:41;;;;;;;15.20;5.90;;;16.90;90.30;;;17.20;57.47;95406.75;5035768;28;20901;-57
2022/10/26 01:23:12;;;;;;;15.17;6.10;;;16.90;90.40;;;17.14;57.53;95399.44;5038283;28;20892;-54
2022/10/26 01:26:06;;;;;;;7.43;5.43;;;16.80;90.20;;;17.09;57.78;95401.78;5044547;28;20802;-56
2022/10/26 01:28:45;;;;;;;13.20;5.77;;;16.80;90.40;;;17.03;57.41;95402.44;5037602;28;20480;-55
2022/10/26 01:31:16;;;;;;;8.67;5.60;;;16.70;90.40;;;16.97;57.90;95406.59;5043998;28;20467;-54
2022/10/26 01:33:45;;;;;;;8.37;5.00;;;16.60;90.60;;;16.92;58.20;95400.13;5040356;28;20471;-55
2022/10/26 01:36:14;;;;;;;11.53;5.57;;;16.60;90.90;;;16.84;57.83;95403.59;5041712;28;20452;-54
2022/10/26 01:38:50;;;;;;;17.30;6.13;;;16.50;90.70;;;16.78;58.17;95397.09;5031785;28;20468;-53
2022/10/26 01:41:21;;;;;;;11.33;5.33;;;16.50;90.90;;;16.72;57.99;95402.25;5041064;28;20472;-56
2022/10/26 01:43:52;;;;;;;12.40;5.57;;;16.40;91.10;;;16.67;57.92;95392.13;5045166;28;20476;-55
2022/10/26 01:46:21;;;;;;;16.20;5.90;;;16.40;91.10;;;16.61;58.41;95390.13;5040668;28;20519;-53
2022/10/26 01:48:48;;;;;;;10.60;5.73;;;16.30;91.40;;;16.54;58.30;95386.44;5041811;28;20852;-54
2022/10/26 01:51:16;;;;;;;10.73;4.63;;;16.20;91.30;;;16.49;58.31;95405.53;5042237;28;20456;-55
2022/10/26 01:53:45;;;;;;;16.63;5.33;;;16.20;91.30;;;16.43;58.15;95393.72;5037065;28;20580;-55
2022/10/26 01:56:18;;;;;;;10.33;5.80;;;16.10;91.30;;;16.35;58.33;95388.41;5040663;28;20902;-57
2022/10/26 01:59:35;;;;;;;10.90;5.47;;;16.10;91.40;;;16.34;58.99;95393.88;5028201;28;20523;-55
2022/10/26 02:02:53;;;;;;;8.57;5.70;;;16.00;91.50;;;16.29;58.91;95397.00;4968951;28;21066;-56
2022/10/26 02:05:36;;;;;;;14.30;5.90;;;16.00;91.80;;;16.23;58.81;95390.50;5031219;28;20565;-53
2022/10/26 02:08:33;;;;;;;11.17;5.43;;;15.90;91.90;;;16.19;59.21;95388.34;5037451;28;20977;-54
2022/10/26 02:11:09;;;;;;;15.80;6.03;;;15.90;91.90;;;16.13;58.64;95398.63;5000741;28;20543;-54
2022/10/26 02:13:42;;;;;;;11.77;6.00;;;15.90;91.90;;;16.09;59.21;95405.22;5039176;28;20480;-56
2022/10/26 02:16:18;;;;;;;12.60;5.83;;;15.80;92.30;;;16.05;59.24;95401.25;5035547;28;20475;-55
2022/10/26 02:18:51;;;;;;;16.17;5.90;;;15.70;92.40;;;16.01;58.98;95399.91;5030351;28;20484;-55
2022/10/26 02:21:20;;;;;;;12.70;6.27;;;15.70;92.50;;;15.98;58.97;95400.22;5037355;28;21030;-54
2022/10/26 02:23:48;;;;;;;16.40;6.90;;;15.60;92.40;;;15.95;59.03;95398.72;5034662;28;21005;-55
2022/10/26 02:26:18;;;;;;;13.83;5.40;;;15.60;92.50;;;15.92;59.30;95398.22;5038730;28;20513;-53
2022/10/26 02:28:49;;;;;;;40.27;6.67;;;15.60;92.60;;;15.87;58.99;95401.34;5038607;28;20883;-56
2022/10/26 02:31:17;;;;;;;8.27;5.60;;;15.60;92.60;;;15.83;59.59;95393.88;5037751;28;20509;-56
2022/10/26 02:33:46;;;;;;;8.90;5.60;;;15.50;92.80;;;15.79;59.67;95403.16;5039485;28;20483;-56
2022/10/26 02:36:17;;;;;;;11.90;5.33;;;15.50;93.10;;;15.76;59.98;95406.91;5038098;28;20456;-55
2022/10/26 02:38:45;;;;;;;13.87;5.63;;;15.50;93.70;;;15.72;60.08;95400.25;5034035;28;20483;-55
2022/10/26 02:41:12;;;;;;;15.83;5.23;;;15.40;93.50;;;15.68;60.00;95399.75;5035486;28;20465;-55
2022/10/26 02:43:44;;;;;;;17.13;6.30;;;15.40;93.80;;;15.68;60.46;95405.06;5037048;28;20493;-55
2022/10/26 02:46:13;;;;;;;12.33;5.67;;;15.40;93.80;;;15.66;60.72;95401.72;5032386;28;20460;-53
2022/10/26 02:48:40;;;;;;;15.00;5.83;;;15.40;94.40;;;15.67;60.87;95399.91;5037696;28;20482;-53
2022/10/26 02:51:11;;;;;;;12.43;6.30;;;15.40;94.70;;;15.68;61.33;95389.13;5032489;28;20889;-54
2022/10/26 02:53:42;;;;;;;15.53;6.37;;;15.40;95.00;;;15.72;61.30;95398.44;5042561;28;20818;-55
2022/10/26 02:56:15;;;;;;;17.40;6.07;;;15.40;95.20;;;15.76;61.17;95401.59;5033192;28;20883;-55
2022/10/26 02:58:45;;;;;;;9.87;6.00;;;15.40;95.10;;;15.77;61.41;95401.47;5038156;28;20584;-54
2022/10/26 03:01:13;;;;;;;12.00;5.97;;;15.50;95.50;;;15.79;61.31;95403.97;5031620;28;20444;-54
2022/10/26 03:03:41;;;;;;;12.40;6.23;;;15.50;95.30;;;15.81;61.47;95414.41;5036206;28;20495;-56
2022/10/26 03:06:09;;;;;;;21.33;6.40;;;15.40;95.40;;;15.82;61.53;95419.56;5044032;28;20467;-54
2022/10/26 03:08:37;;;;;;;7.40;6.60;;;15.50;95.70;;;15.82;61.60;95429.31;5045194;28;20521;-54
2022/10/26 03:11:04;;;;;;;13.37;7.00;;;15.50;95.70;;;15.81;61.61;95423.19;5037981;28;20455;-57
2022/10/26 03:13:32;;;;;;;14.43;5.80;;;15.50;95.70;;;15.82;61.26;95430.19;5045274;28;21031;-54
2022/10/26 03:15:59;;;;;;;14.77;7.30;;;15.50;95.60;;;15.81;61.82;95427.69;5043545;28;20991;-56
2022/10/26 03:18:26;;;;;;;10.33;5.63;;;15.50;95.90;;;15.80;61.50;95429.53;5045422;28;20518;-55
2022/10/26 03:20:53;;;;;;;14.03;6.80;;;15.50;95.80;;;15.79;61.95;95440.28;5040247;28;20483;-57
2022/10/26 03:23:22;;;;;;;12.50;5.60;;;15.50;96.10;;;15.79;62.01;95435.81;5044225;28;20499;-54
2022/10/26 03:25:49;;;;;;;11.10;5.63;;;15.50;96.20;;;15.79;61.54;95440.28;5039268;28;20467;-55
2022/10/26 03:28:16;;;;;;;12.77;6.20;;;15.50;95.90;;;15.79;62.06;95448.25;5046102;28;20455;-55
2022/10/26 03:30:44;;;;;;;33.20;6.67;;;15.40;96.20;;;15.79;61.87;95446.41;5039987;28;20457;-57
2022/10/26 03:33:11;;;;;;;17.80;6.43;;;15.50;96.10;;;15.79;61.93;95445.59;5040280;28;20464;-54
2022/10/26 03:35:38;;;;;;;8.33;5.73;;;15.50;96.10;;;15.79;61.85;95445.59;5036138;28;20487;-54
2022/10/26 03:38:06;;;;;;;11.10;6.00;;;15.50;96.00;;;15.77;61.68;95449.22;5032209;28;20459;-54
2022/10/26 03:40:35;;;;;;;11.30;6.13;;;15.50;96.00;;;15.75;61.81;95445.88;5037257;28;20460;-55
2022/10/26 03:43:02;;;;;;;11.40;6.00;;;15.50;96.10;;;15.76;62.11;95452.00;5043129;28;20496;-56
2022/10/26 03:45:30;;;;;;;7.87;5.70;;;15.40;96.40;;;15.78;62.09;95450.03;5034917;28;20526;-54
2022/10/26 03:47:57;;;;;;;5.83;4.73;;;15.40;96.40;;;15.80;62.50;95442.78;5032537;28;20457;-59
2022/10/26 03:50:24;;;;;;;9.27;5.20;;;15.50;96.80;;;15.83;62.37;95436.31;5037838;28;20468;-58
2022/10/26 03:52:51;;;;;;;9.30;5.50;;;15.50;96.70;;;15.84;62.36;95445.94;5035733;28;20457;-56
2022/10/26 03:55:19;;;;;;;23.23;6.17;;;15.50;96.70;;;15.85;63.25;95451.09;5039815;28;20476;-55
2022/10/26 03:57:48;;;;;;;11.17;6.03;;;15.50;97.20;;;15.85;62.62;95455.53;5041733;28;20540;-54
2022/10/26 04:00:16;;;;;;;11.10;5.00;;;15.50;97.10;;;15.88;62.35;95455.22;5045698;28;20471;-56
2022/10/26 04:02:45;;;;;;;13.53;6.30;;;15.50;96.80;;;15.87;62.21;95445.63;5041266;28;20884;-54
2022/10/26 04:05:13;;;;;;;16.00;5.87;;;15.60;96.70;;;15.84;62.26;95443.28;5042505;28;20847;-55
2022/10/26 04:07:41;;;;;;;8.70;6.30;;;15.60;96.60;;;15.88;62.21;95444.59;5036748;28;20467;-55
2022/10/26 04:10:09;;;;;;;17.80;6.90;;;15.50;96.70;;;15.90;62.25;95448.78;5040640;28;20487;-56
2022/10/26 04:12:37;;;;;;;12.40;6.00;;;15.60;96.70;;;15.93;62.40;95450.28;5041767;28;20456;-56
2022/10/26 04:15:07;;;;;;;30.27;6.53;;;15.60;97.00;;;15.94;62.33;95454.59;5043880;28;20788;-56
2022/10/26 04:17:35;;;;;;;15.33;7.80;;;15.60;96.80;;;15.94;62.60;95457.25;5042644;28;20502;-56
2022/10/26 04:20:02;;;;;;;12.93;6.40;;;15.60;97.20;;;15.97;62.34;95456.09;5041632;28;21031;-57
2022/10/26 04:22:29;;;;;;;8.60;6.43;;;15.60;97.00;;;15.98;62.30;95455.13;5043881;28;20564;-56
2022/10/26 04:24:56;;;;;;;7.83;6.30;;;15.60;97.00;;;16.00;62.97;95453.94;5043481;28;20475;-55
2022/10/26 04:27:24;;;;;;;8.47;6.30;;;15.60;97.60;;;16.03;62.80;95456.28;5045970;28;20471;-54
2022/10/26 04:29:51;;;;;;;11.27;6.27;;;15.70;97.20;;;16.03;62.67;95448.34;5038405;28;20463;-57
2022/10/26 04:32:20;;;;;;;10.00;6.00;;;15.70;97.20;;;16.08;62.63;95453.16;5031658;28;20958;-55
2022/10/26 04:34:47;;;;;;;10.87;5.93;;;15.70;97.20;;;16.07;62.74;95462.13;5035177;28;20476;-55
2022/10/26 04:37:14;;;;;;;11.13;5.97;;;15.80;97.30;;;16.07;62.47;95457.66;5030778;28;21089;-54
2022/10/26 04:39:42;;;;;;;8.03;6.00;;;15.70;97.20;;;16.06;62.61;95463.94;5033299;28;20472;-55
2022/10/26 04:42:09;;;;;;;7.67;5.40;;;15.70;97.20;;;16.07;62.45;95468.25;5034379;28;20840;-55
2022/10/26 04:44:36;;;;;;;11.83;6.70;;;15.70;97.20;;;16.07;62.89;95470.91;5040628;28;20499;-56
2022/10/26 04:47:03;;;;;;;82.17;18.10;;;15.70;97.20;;;16.07;62.73;95464.78;5043802;28;20456;-54
2022/10/26 04:49:32;;;;;;;53.27;14.30;;;15.70;97.20;;;16.05;62.75;95470.25;5040907;28;20468;-55
2022/10/26 04:51:59;;;;;;;22.17;8.40;;;15.70;97.40;;;16.09;62.69;95473.41;5034284;28;20462;-54
2022/10/26 04:54:27;;;;;;;16.50;7.63;;;15.70;97.30;;;16.10;62.37;95469.78;5040737;28;20848;-54
2022/10/26 04:56:54;;;;;;;25.00;8.23;;;15.70;97.20;;;16.06;62.44;95468.41;5043080;28;20454;-56
2022/10/26 04:59:21;;;;;;;9.33;6.83;;;15.80;97.30;;;16.04;62.34;95473.88;5041899;28;21011;-54
2022/10/26 05:01:49;;;;;;;20.17;7.23;;;15.70;97.20;;;15.97;62.36;95478.16;5045314;28;20451;-55
2022/10/26 05:04:16;;;;;;;18.00;7.13;;;15.60;97.10;;;15.94;62.69;95481.13;5043085;28;20492;-55
2022/10/26 05:06:44;;;;;;;17.67;7.03;;;15.60;97.40;;;15.92;62.72;95477.81;5042676;28;20452;-55
2022/10/26 05:09:12;;;;;;;17.20;7.07;;;15.60;97.20;;;15.90;62.93;95485.09;5043282;28;20472;-56
2022/10/26 05:11:39;;;;;;;14.00;6.77;;;15.60;97.50;;;15.88;63.10;95485.25;5042497;28;20487;-54
2022/10/26 05:14:08;;;;;;;13.63;6.60;;;15.60;97.60;;;15.85;62.92;95490.03;5040767;28;20537;-55
2022/10/26 05:16:35;;;;;;;15.70;6.73;;;15.50;97.50;;;15.82;62.66;95488.53;5044365;28;20443;-56
2022/10/26 05:19:03;;;;;;;9.00;5.90;;;15.50;97.20;;;15.83;62.83;95481.41;5044627;28;20467;-54
2022/10/26 05:21:30;;;;;;;11.10;6.47;;;15.50;97.30;;;15.82;62.93;95483.22;5043661;28;20960;-55
2022/10/26 05:23:59;;;;;;;14.03;6.63;;;15.50;97.70;;;15.84;63.53;95481.25;5037635;28;20960;-53
2022/10/26 05:26:26;;;;;;;22.93;7.47;;;15.50;98.10;;;15.90;63.38;95474.50;5041663;28;20460;-55
2022/10/26 05:28:53;;;;;;;16.73;7.40;;;15.60;98.00;;;15.95;63.33;95482.78;5005983;28;20856;-54
2022/10/26 05:31:21;;;;;;;12.77;6.50;;;15.60;98.00;;;16.00;63.17;95491.09;5021171;28;20894;-55
2022/10/26 05:33:50;;;;;;;16.77;7.30;;;15.60;98.00;;;16.07;63.07;95483.38;5032978;28;20498;-54
2022/10/26 05:36:17;;;;;;;17.00;7.70;;;15.70;98.00;;;16.12;62.82;95500.44;5020253;28;20562;-56
2022/10/26 05:38:44;;;;;;;18.10;7.20;;;15.70;97.60;;;16.18;63.20;95498.19;5025696;28;20566;-55
2022/10/26 05:41:13;;;;;;;15.47;6.47;;;15.80;97.70;;;16.22;62.82;95504.81;5022783;28;20448;-60
2022/10/26 05:43:40;;;;;;;11.97;6.40;;;15.90;97.70;;;16.29;62.31;95503.19;5028522;28;20504;-54
2022/10/26 05:46:08;;;;;;;8.67;5.60;;;15.90;97.30;;;16.35;62.41;95504.38;5017247;28;20460;-55
2022/10/26 05:48:35;;;;;;;9.80;6.10;;;16.00;97.40;;;16.44;62.40;95511.41;5027663;28;21011;-55
2022/10/26 05:51:02;;;;;;;11.07;6.43;;;16.00;97.40;;;16.57;62.51;95505.63;5026477;28;20696;-56
2022/10/26 05:53:29;;;;;;;10.17;6.30;;;16.20;97.50;;;16.81;61.85;95508.34;5033560;28;20995;-55
2022/10/26 05:55:58;;;;;;;17.03;6.83;;;16.40;97.50;;;17.18;61.43;95516.88;5025775;28;20452;-56
2022/10/26 05:58:27;;;;;;;14.10;6.13;;;16.70;96.90;;;17.60;60.01;95509.75;5014830;28;20472;-54
2022/10/26 06:01:10;;;;;;;12.17;6.50;;;17.00;96.30;;;18.05;59.61;95519.88;5016368;28;20459;-56
2022/10/26 06:03:47;;;;;;;11.50;6.83;;;17.40;95.70;;;18.53;58.45;95516.34;5024034;28;20502;-55
2022/10/26 06:06:15;;;;;;;14.37;6.07;;;17.90;95.00;;;18.99;57.06;95521.81;5031405;28;20471;-55
2022/10/26 06:08:44;;;;;;;20.60;6.40;;;18.30;94.20;;;19.44;56.04;95524.69;5021656;28;20592;-55
2022/10/26 06:11:12;;;;;;;17.87;6.40;;;18.80;93.40;;;19.90;55.45;95527.31;5028905;28;20457;-57
2022/10/26 06:13:41;;;;;;;9.90;6.30;;;19.20;92.70;;;20.34;54.44;95531.88;5016654;28;20480;-55
2022/10/26 06:16:25;;;;;;;11.73;5.13;;;19.60;91.90;;;20.81;53.04;95532.50;5035783;28;20458;-55
2022/10/26 06:19:00;;;;;;;15.30;5.10;;;20.10;90.90;;;21.29;52.10;95542.72;5021685;28;20467;-55
2022/10/26 06:21:40;;;;;;;11.40;5.90;;;20.60;90.00;;;21.73;51.63;95536.34;5024100;28;20551;-56
2022/10/26 06:24:09;;;;;;;11.27;6.30;;;21.00;88.50;;;22.20;50.51;95531.38;5021074;28;20984;-55
2022/10/26 06:26:42;;;;;;;11.57;5.73;;;21.50;86.70;;;22.67;49.69;95532.47;5030047;28;20479;-55
2022/10/26 06:29:21;;;;;;;12.07;5.50;;;21.90;84.40;;;23.17;49.29;95532.28;5021743;28;20476;-56
2022/10/26 06:31:48;;;;;;;8.07;4.90;;;22.40;82.30;;;23.64;48.09;95527.03;5034171;28;20572;-55
2022/10/26 06:34:21;;;;;;;13.10;5.57;;;22.90;81.00;;;24.14;47.83;95534.69;5015026;28;20477;-53
2022/10/26 06:36:48;;;;;;;8.47;5.50;;;23.30;80.20;;;24.65;46.89;95539.38;5026655;28;20557;-55
2022/10/26 06:39:16;;;;;;;18.53;5.13;;;23.90;77.40;;;25.16;46.29;95534.19;5012668;28;20477;-55
2022/10/26 06:41:44;;;;;;;10.60;5.33;;;24.30;75.50;;;25.65;45.55;95538.06;5033643;28;21035;-52
2022/10/26 06:44:19;;;;;;;11.23;5.40;;;24.80;74.30;;;26.17;44.50;95537.09;5024603;28;20511;-55
2022/10/26 06:46:48;;;;;;;11.20;5.50;;;25.30;72.20;;;26.67;43.79;95550.53;5029313;28;20536;-55
2022/10/26 06:49:19;;;;;;;13.87;6.13;;;25.80;70.80;;;27.17;40.42;95536.84;5020983;28;20529;-55
2022/10/26 06:51:51;;;;;;;16.23;5.00;;;26.30;64.00;;;27.66;41.95;95544.91;5043662;28;20446;-55
2022/10/26 06:54:23;;;;;;;10.03;4.80;;;26.80;65.80;;;28.16;41.52;95554.56;5037128;28;20479;-53
2022/10/26 06:56:50;;;;;;;8.93;5.57;;;27.30;63.20;;;28.66;41.20;95560.59;5041308;28;20450;-56
2022/10/26 06:59:27;;;;;;;13.93;5.40;;;27.80;63.10;;;29.11;39.25;95554.50;5038502;28;20914;-54
2022/10/26 07:01:54;;;;;;;11.60;5.10;;;28.30;60.90;;;29.57;39.96;95551.91;5045170;28;20450;-54
2022/10/26 07:04:21;;;;;;;12.63;5.37;;;28.80;59.30;;;30.02;38.43;95551.94;5042273;28;21011;-54
2022/10/26 07:06:49;;;;;;;11.10;5.50;;;29.30;57.70;;;30.51;38.17;95561.41;5044563;28;20980;-54
2022/10/26 07:09:16;;;;;;;8.33;4.77;;;29.90;56.50;;;30.97;37.75;95556.63;5040857;28;20489;-56
2022/10/26 07:11:43;;;;;;;20.50;5.43;;;30.50;55.70;;;31.43;36.58;95565.34;5042627;28;20262;-53
2022/10/26 07:14:10;;;;;;;13.57;4.97;;;31.00;54.20;;;31.87;36.02;95552.72;5043403;28;20216;-56
2022/10/26 07:16:39;;;;;;;5.63;5.05;;;31.50;52.90;;;32.16;35.10;95562.28;5045039;28;20217;-54
2022/10/26 07:19:06;;;;;;;11.57;6.50;;;31.90;51.10;;;32.41;34.18;95560.84;5040589;28;20220;-55
2022/10/26 07:21:34;;;;;;;8.20;6.77;;;32.30;49.90;;;32.64;34.04;95556.97;5043081;28;20698;-54
2022/10/26 07:24:01;;;;;;;7.60;5.20;;;32.60;49.50;;;32.85;33.79;95557.88;5041590;28;20786;-55
2022/10/26 07:26:28;;;;;;;11.60;6.10;;;32.90;48.50;;;33.04;32.93;95560.97;5042595;28;20212;-56
2022/10/26 07:28:55;;;;;;;8.95;5.00;;;33.20;47.50;;;33.22;32.70;95556.19;5037094;28;20231;-54
2022/10/26 07:31:23;;;;;;;8.35;5.13;;;33.40;47.20;;;33.34;32.02;95556.78;5045598;28;20262;-54
2022/10/26 07:33:53;;;;;;;8.70;5.70;;;33.60;46.20;;;33.46;32.39;95556.50;5018021;28;20218;-55
2022/10/26 07:36:20;;;;;;;9.43;6.00;;;33.70;45.90;;;33.55;31.53;95556.81;5022582;28;20280;-55
2022/10/26 07:38:50;;;;;;;8.57;4.68;;;33.70;44.90;;;33.59;31.91;95561.47;5027326;28;20294;-56
2022/10/26 07:41:18;;;;;;;11.17;5.83;;;33.60;45.10;;;33.67;31.77;95551.13;5013562;28;20221;-57
2022/10/26 07:43:45;;;;;;;12.80;5.90;;;33.50;45.00;;;33.73;31.13;95550.09;5035960;28;20724;-56
2022/10/26 07:46:12;;;;;;;14.85;4.65;;;33.40;44.60;;;33.75;31.29;95545.97;5020762;28;20279;-54
2022/10/26 07:48:39;;;;;;;18.05;5.22;;;33.30;44.40;;;33.78;31.43;95552.81;5030733;28;20707;-55
2022/10/26 07:51:08;;;;;;;6.43;4.78;;;33.30;44.50;;;33.77;31.13;95551.16;5023150;28;20210;-53
2022/10/26 07:53:36;;;;;;;19.13;8.63;;;33.30;44.20;;;33.77;31.08;95540.25;5033306;28;20224;-54
2022/10/26 07:56:03;;;;;;;12.45;5.63;;;33.30;44.00;;;33.78;30.52;95547.34;5026750;28;20201;-56
2022/10/26 07:58:30;;;;;;;27.85;14.23;;;33.30;43.80;;;33.82;30.58;95547.63;5027740;28;20310;-53
2022/10/26 08:00:57;;;;;;;9.07;5.53;;;33.30;43.50;;;33.84;30.51;95540.81;5019794;28;20198;-55
2022/10/26 08:03:25;;;;;;;8.87;5.00;;;33.30;43.30;;;33.88;29.77;95538.34;5026156;28;20716;-56
2022/10/26 08:05:54;;;;;;;17.55;4.75;;;33.30;43.10;;;33.94;30.29;95537.25;5018582;28;20202;-56
2022/10/26 08:08:23;;;;;;;17.58;5.40;;;33.30;43.10;;;34.00;30.02;95546.28;5027759;28;20301;-55
2022/10/26 08:10:51;;;;;;;8.77;4.95;;;33.30;42.80;;;34.02;29.37;95541.38;5030342;28;20227;-56
2022/10/26 08:13:18;;;;;;;12.27;5.07;;;33.30;42.60;;;34.10;29.28;95547.09;5021918;28;20326;-53
2022/10/26 08:15:46;;;;;;;11.05;4.60;;;33.40;42.50;;;34.21;29.15;95539.75;5026544;28;20210;-55
2022/10/26 08:18:13;;;;;;;6.97;3.95;;;33.50;42.50;;;34.34;28.89;95535.66;5014957;28;20515;-55
2022/10/26 08:20:41;;;;;;;6.15;3.60;;;33.60;42.20;;;34.46;29.65;95540.84;5034699;28;20274;-55
2022/10/26 08:23:08;;;;;;;15.70;4.15;;;33.70;41.80;;;34.60;29.63;95530.97;5027585;28;20209;-57
2022/10/26 08:25:36;;;;;;;5.05;4.10;;;33.80;41.70;;;34.75;28.55;95532.91;5031934;28;20206;-55
2022/10/26 08:28:04;;;;;;;7.68;3.45;;;34.00;41.40;;;34.87;28.49;95537.22;5019033;28;20206;-54
2022/10/26 08:30:31;;;;;;;9.85;4.93;;;34.10;41.20;;;34.95;27.92;95532.00;5030227;28;20227;-56
2022/10/26 08:33:00;;;;;;;8.60;3.72;;;34.20;41.00;;;35.02;28.92;95531.72;5014586;28;20208;-55
2022/10/26 08:35:27;;;;;;;3.72;3.03;;;34.30;40.80;;;35.10;27.98;95533.03;5029762;28;20241;-55
2022/10/26 08:37:54;;;;;;;20.38;4.32;;;34.30;40.50;;;35.17;27.58;95542.59;5018722;28;20263;-54
2022/10/26 08:40:25;;;;;;;6.60;4.60;;;34.40;40.20;;;35.23;27.18;95532.47;5025287;28;20698;-54
2022/10/26 08:42:56;;;;;;;5.13;3.50;;;34.50;39.90;;;35.31;27.42;95536.56;5018202;28;20228;-54
2022/10/26 08:45:28;;;;;;;10.95;3.40;;;34.50;39.70;;;35.43;27.82;95538.94;5013424;28;20287;-55
2022/10/26 08:47:57;;;;;;;5.20;4.10;;;34.60;39.50;;;35.54;26.95;95537.81;5028743;28;20276;-53
2022/10/26 08:50:27;;;;;;;7.72;3.22;;;34.70;39.00;;;35.62;27.26;95539.09;5021706;28;20224;-54
2022/10/26 08:53:01;;;;;;;7.32;4.47;;;34.80;38.80;;;35.68;27.45;95543.44;5022889;28;20209;-55
2022/10/26 08:55:39;;;;;;;8.40;3.90;;;34.90;38.70;;;35.73;26.60;95546.97;5021959;28;20229;-55
2022/10/26 08:58:13;;;;;;;4.82;3.05;;;34.90;38.50;;;35.79;26.12;95549.69;5033351;28;20204;-55
2022/10/26 09:00:41;;;;;;;3.45;2.55;;;35.00;38.20;;;35.83;26.84;95545.31;5018318;28;20225;-55
2022/10/26 09:03:13;;;;;;;6.20;3.10;;;35.10;38.10;;;35.90;26.82;95554.03;5029347;28;20270;-55
2022/10/26 09:05:49;;;;;;;5.50;3.25;;;35.10;37.70;;;36.00;25.71;95545.72;5011763;28;20328;-53
2022/10/26 09:08:20;;;;;;;4.50;2.63;;;35.20;37.30;;;36.02;26.27;95540.78;5024728;28;20663;-54
2022/10/26 09:10:53;;;;;;;3.67;2.53;;;35.30;37.30;;;36.05;25.65;95544.84;5019134;28;20649;-55
2022/10/26 09:13:30;;;;;;;7.32;2.08;;;35.30;37.10;;;36.13;25.82;95543.44;5035766;28;20253;-55
2022/10/26 09:16:02;;;;;;;4.50;3.00;;;35.30;36.80;;;36.19;25.70;95537.66;5022335;28;20211;-54
2022/10/26 09:18:39;;;;;;;7.57;2.88;;;35.40;36.80;;;36.28;25.69;95539.78;5024077;28;20685;-54
2022/10/26 09:21:22;;;;;;;4.70;3.08;;;35.50;36.90;;;36.38;25.12;95534.22;5017558;28;20206;-54
2022/10/26 09:24:02;;;;;;;3.80;2.80;;;35.60;36.70;;;36.45;25.02;95533.88;5033017;28;20295;-56
2022/10/26 09:26:33;;;;;;;6.70;2.55;;;35.70;36.30;;;36.46;24.86;95538.25;5021852;28;20217;-55
2022/10/26 09:29:05;;;;;;;8.23;3.40;;;35.70;36.10;;;36.45;24.90;95540.16;5028606;28;20690;-54
2022/10/26 09:31:38;;;;;;;3.53;2.75;;;35.70;36.10;;;36.49;25.43;95532.22;5017982;28;20267;-56
2022/10/26 09:34:06;;;;;;;8.32;2.50;;;35.70;36.00;;;36.49;25.00;95524.00;5035208;28;20314;-55
2022/10/26 09:36:33;;;;;;;7.65;2.25;;;35.70;35.80;;;36.47;24.99;95534.41;5024900;28;20236;-56
2022/10/26 09:39:04;;;;;;;11.88;2.63;;;35.70;35.80;;;36.49;25.51;95530.28;5027890;28;20274;-54
2022/10/26 09:41:37;;;;;;;5.35;2.65;;;35.70;35.90;;;36.47;24.97;95523.44;5014036;28;20220;-55
2022/10/26 09:44:08;;;;;;;4.10;1.90;;;35.70;34.90;;;36.35;24.87;95521.09;5029731;28;20736;-57
2022/10/26 09:46:55;;;;;;;3.60;2.22;;;35.70;35.40;;;36.34;24.86;95524.94;5018946;28;20193;-57
2022/10/26 09:49:29;;;;;;;3.22;2.88;;;35.60;35.40;;;36.36;24.48;95520.81;5033552;28;20226;-55
2022/10/26 09:51:56;;;;;;;8.40;1.77;;;35.60;34.70;;;36.34;24.77;95522.19;5017116;28;21391;-56
2022/10/26 09:54:23;;;;;;;7.05;2.60;;;35.60;35.10;;;36.38;24.37;95518.59;5027344;28;20283;-54
2022/10/26 09:56:53;;;;;;;10.48;2.55;;;35.60;34.60;;;36.38;24.24;95513.13;5017776;28;20202;-58
2022/10/26 09:59:23;;;;;;;4.35;2.00;;;35.60;34.30;;;36.30;24.23;95512.91;5037752;28;20656;-54
2022/10/26 10:01:50;;;;;;;3.10;2.20;;;35.60;34.70;;;36.20;25.04;95505.59;5043178;28;20208;-57
2022/10/26 10:04:21;;;;;;;2.63;1.92;;;35.50;34.60;;;36.10;24.97;95503.75;5039611;28;20260;-55
2022/10/26 10:06:49;;;;;;;9.68;2.60;;;35.50;34.80;;;36.06;24.77;95508.97;5033920;28;20341;-54
2022/10/26 10:09:17;;;;;;;5.30;2.42;;;35.40;34.80;;;36.04;24.32;95508.44;5040654;28;20724;-54
2022/10/26 10:11:53;;;;;;;2.85;1.88;;;35.30;34.80;;;35.96;24.46;95505.50;5044543;28;20208;-55
2022/10/26 10:14:23;;;;;;;5.07;2.67;;;35.20;34.60;;;35.84;24.36;95498.47;5045105;28;20712;-56
2022/10/26 10:16:53;;;;;;;5.40;2.53;;;35.20;34.90;;;35.86;24.50;95492.72;5046395;28;20209;-54
2022/10/26 10:19:25;;;;;;;5.00;2.47;;;35.10;35.00;;;35.92;24.34;95494.31;5046127;28;20246;-56
2022/10/26 10:21:55;;;;;;;6.82;2.70;;;35.20;35.00;;;35.93;24.55;95493.22;5037800;28;20294;-54
2022/10/26 10:24:27;;;;;;;8.25;2.22;;;35.20;34.80;;;35.79;24.06;95494.94;5045099;28;20237;-55
2022/10/26 10:27:00;;;;;;;3.58;2.08;;;35.10;34.40;;;35.58;24.63;95486.84;5041003;28;20205;-54